sensor_id;sensor_type;location;lat;lon;timestamp;P1;durP1;ratioP1;P2;durP2;ratioP2
77246;SDS011;66279;42.820;23.374;2022-12-24T00:02:17;27.48;;;12.85;;
77246;SDS011;66279;42.820;23.374;2022-12-24T00:04:42;28.52;;;11.63;;
77246;SDS011;66279;42.820;23.374;2022-12-24T00:07:08;28.70;;;12.80;;
77246;SDS011;66279;42.820;23.374;2022-12-24T00:09:34;27.13;;;11.63;;
77246;SDS011;66279;42.820;23.374;2022-12-24T00:11:59;29.92;;;14.55;;
77246;SDS011;66279;42.820;23.374;2022-12-24T00:14:25;34.70;;;14.38;;
77246;SDS011;66279;42.820;23.374;2022-12-24T00:16:50;30.88;;;12.73;;
77246;SDS011;66279;42.820;23.374;2022-12-24T00:19:16;40.30;;;16.27;;
77246;SDS011;66279;42.820;23.374;2022-12-24T00:21:41;29.80;;;11.27;;
77246;SDS011;66279;42.820;23.374;2022-12-24T00:24:07;24.33;;;11.32;;
77246;SDS011;66279;42.820;23.374;2022-12-24T00:26:33;27.52;;;12.55;;
77246;SDS011;66279;42.820;23.374;2022-12-24T00:28:59;22.20;;;10.30;;
77246;SDS011;66279;42.820;23.374;2022-12-24T00:31:25;31.15;;;12.25;;
77246;SDS011;66279;42.820;23.374;2022-12-24T00:33:51;34.75;;;15.15;;
77246;SDS011;66279;42.820;23.374;2022-12-24T00:36:17;27.45;;;12.77;;
77246;SDS011;66279;42.820;23.374;2022-12-24T00:38:43;29.23;;;12.15;;
77246;SDS011;66279;42.820;23.374;2022-12-24T00:41:09;29.98;;;13.30;;
77246;SDS011;66279;42.820;23.374;2022-12-24T00:44:00;30.58;;;13.25;;
77246;SDS011;66279;42.820;23.374;2022-12-24T00:46:28;26.70;;;11.77;;
77246;SDS011;66279;42.820;23.374;2022-12-24T00:48:55;34.53;;;14.75;;
77246;SDS011;66279;42.820;23.374;2022-12-24T00:51:20;26.27;;;12.55;;
77246;SDS011;66279;42.820;23.374;2022-12-24T00:53:47;28.33;;;11.35;;
77246;SDS011;66279;42.820;23.374;2022-12-24T00:56:13;44.00;;;18.48;;
77246;SDS011;66279;42.820;23.374;2022-12-24T00:58:39;45.92;;;17.38;;
77246;SDS011;66279;42.820;23.374;2022-12-24T01:01:05;31.50;;;13.98;;
77246;SDS011;66279;42.820;23.374;2022-12-24T01:03:31;36.60;;;15.93;;
77246;SDS011;66279;42.820;23.374;2022-12-24T01:06:03;38.55;;;14.80;;
77246;SDS011;66279;42.820;23.374;2022-12-24T01:08:31;64.63;;;25.50;;
77246;SDS011;66279;42.820;23.374;2022-12-24T01:10:58;132.13;;;53.03;;
77246;SDS011;66279;42.820;23.374;2022-12-24T01:13:24;51.30;;;22.75;;
77246;SDS011;66279;42.820;23.374;2022-12-24T01:15:50;69.15;;;26.80;;
77246;SDS011;66279;42.820;23.374;2022-12-24T01:18:15;49.60;;;21.23;;
77246;SDS011;66279;42.820;23.374;2022-12-24T01:20:41;62.15;;;26.67;;
77246;SDS011;66279;42.820;23.374;2022-12-24T01:23:07;31.02;;;14.52;;
77246;SDS011;66279;42.820;23.374;2022-12-24T01:25:32;33.28;;;14.48;;
77246;SDS011;66279;42.820;23.374;2022-12-24T01:27:58;52.60;;;21.80;;
77246;SDS011;66279;42.820;23.374;2022-12-24T01:30:24;52.42;;;21.85;;
77246;SDS011;66279;42.820;23.374;2022-12-24T01:32:50;73.97;;;30.85;;
77246;SDS011;66279;42.820;23.374;2022-12-24T01:35:15;76.35;;;28.50;;
77246;SDS011;66279;42.820;23.374;2022-12-24T01:37:41;94.47;;;36.53;;
77246;SDS011;66279;42.820;23.374;2022-12-24T01:40:09;67.40;;;28.45;;
77246;SDS011;66279;42.820;23.374;2022-12-24T01:42:57;69.72;;;28.98;;
77246;SDS011;66279;42.820;23.374;2022-12-24T01:48:15;97.15;;;37.97;;
77246;SDS011;66279;42.820;23.374;2022-12-24T01:50:45;65.97;;;27.00;;
77246;SDS011;66279;42.820;23.374;2022-12-24T01:53:14;68.28;;;27.05;;
77246;SDS011;66279;42.820;23.374;2022-12-24T01:55:40;49.75;;;23.33;;
77246;SDS011;66279;42.820;23.374;2022-12-24T01:58:06;36.05;;;17.25;;
77246;SDS011;66279;42.820;23.374;2022-12-24T02:00:33;37.35;;;17.65;;
77246;SDS011;66279;42.820;23.374;2022-12-24T02:02:59;52.00;;;21.67;;
77246;SDS011;66279;42.820;23.374;2022-12-24T02:05:30;44.05;;;20.90;;
77246;SDS011;66279;42.820;23.374;2022-12-24T02:07:59;48.15;;;20.23;;
77246;SDS011;66279;42.820;23.374;2022-12-24T02:10:27;70.82;;;27.13;;
77246;SDS011;66279;42.820;23.374;2022-12-24T02:12:53;41.67;;;20.23;;
77246;SDS011;66279;42.820;23.374;2022-12-24T02:15:19;55.30;;;22.50;;
77246;SDS011;66279;42.820;23.374;2022-12-24T02:32:02;85.82;;;36.20;;
77246;SDS011;66279;42.820;23.374;2022-12-24T02:34:39;93.03;;;35.95;;
77246;SDS011;66279;42.820;23.374;2022-12-24T02:42:40;69.65;;;27.60;;
77246;SDS011;66279;42.820;23.374;2022-12-24T02:45:12;84.93;;;33.47;;
77246;SDS011;66279;42.820;23.374;2022-12-24T02:47:41;100.63;;;35.20;;
77246;SDS011;66279;42.820;23.374;2022-12-24T02:50:09;105.93;;;39.13;;
77246;SDS011;66279;42.820;23.374;2022-12-24T02:52:40;111.80;;;39.22;;
77246;SDS011;66279;42.820;23.374;2022-12-24T02:55:11;99.85;;;39.72;;
77246;SDS011;66279;42.820;23.374;2022-12-24T03:00:14;112.05;;;40.83;;
77246;SDS011;66279;42.820;23.374;2022-12-24T03:05:49;128.68;;;45.72;;
77246;SDS011;66279;42.820;23.374;2022-12-24T03:11:18;111.90;;;40.88;;
77246;SDS011;66279;42.820;23.374;2022-12-24T03:13:44;96.95;;;37.65;;
77246;SDS011;66279;42.820;23.374;2022-12-24T03:16:14;104.05;;;38.45;;
77246;SDS011;66279;42.820;23.374;2022-12-24T03:18:44;92.30;;;35.97;;
77246;SDS011;66279;42.820;23.374;2022-12-24T03:21:15;88.00;;;34.33;;
77246;SDS011;66279;42.820;23.374;2022-12-24T03:23:46;83.40;;;33.20;;
77246;SDS011;66279;42.820;23.374;2022-12-24T03:26:13;86.45;;;31.40;;
77246;SDS011;66279;42.820;23.374;2022-12-24T03:28:41;78.85;;;28.10;;
77246;SDS011;66279;42.820;23.374;2022-12-24T03:31:08;71.18;;;28.40;;
77246;SDS011;66279;42.820;23.374;2022-12-24T03:33:34;66.35;;;27.65;;
77246;SDS011;66279;42.820;23.374;2022-12-24T03:36:01;78.47;;;32.33;;
77246;SDS011;66279;42.820;23.374;2022-12-24T03:38:26;90.95;;;32.92;;
77246;SDS011;66279;42.820;23.374;2022-12-24T03:40:52;94.57;;;32.35;;
77246;SDS011;66279;42.820;23.374;2022-12-24T03:43:17;103.15;;;33.40;;
77246;SDS011;66279;42.820;23.374;2022-12-24T03:45:43;108.35;;;41.00;;
77246;SDS011;66279;42.820;23.374;2022-12-24T03:48:08;113.63;;;38.17;;
77246;SDS011;66279;42.820;23.374;2022-12-24T03:50:34;108.72;;;42.25;;
77246;SDS011;66279;42.820;23.374;2022-12-24T03:53:00;102.43;;;32.92;;
77246;SDS011;66279;42.820;23.374;2022-12-24T03:55:25;86.30;;;30.67;;
77246;SDS011;66279;42.820;23.374;2022-12-24T03:57:51;85.13;;;30.73;;
77246;SDS011;66279;42.820;23.374;2022-12-24T04:00:17;83.05;;;34.58;;
77246;SDS011;66279;42.820;23.374;2022-12-24T04:02:42;82.90;;;33.38;;
77246;SDS011;66279;42.820;23.374;2022-12-24T04:05:11;93.65;;;33.08;;
77246;SDS011;66279;42.820;23.374;2022-12-24T04:07:38;92.55;;;33.58;;
77246;SDS011;66279;42.820;23.374;2022-12-24T04:10:04;91.00;;;35.33;;
77246;SDS011;66279;42.820;23.374;2022-12-24T04:12:30;63.75;;;26.60;;
77246;SDS011;66279;42.820;23.374;2022-12-24T04:14:56;53.33;;;22.27;;
77246;SDS011;66279;42.820;23.374;2022-12-24T04:17:21;50.40;;;20.77;;
77246;SDS011;66279;42.820;23.374;2022-12-24T04:19:47;68.93;;;24.65;;
77246;SDS011;66279;42.820;23.374;2022-12-24T04:22:12;60.60;;;22.60;;
77246;SDS011;66279;42.820;23.374;2022-12-24T04:24:38;68.85;;;26.75;;
77246;SDS011;66279;42.820;23.374;2022-12-24T04:27:03;59.60;;;23.40;;
77246;SDS011;66279;42.820;23.374;2022-12-24T04:29:29;68.07;;;24.23;;
77246;SDS011;66279;42.820;23.374;2022-12-24T04:31:54;49.33;;;21.05;;
77246;SDS011;66279;42.820;23.374;2022-12-24T04:34:20;44.55;;;20.30;;
77246;SDS011;66279;42.820;23.374;2022-12-24T04:36:46;51.15;;;20.17;;
77246;SDS011;66279;42.820;23.374;2022-12-24T04:39:11;84.32;;;30.15;;
77246;SDS011;66279;42.820;23.374;2022-12-24T04:41:37;84.75;;;35.63;;
77246;SDS011;66279;42.820;23.374;2022-12-24T04:44:02;113.47;;;39.10;;
77246;SDS011;66279;42.820;23.374;2022-12-24T04:46:28;114.00;;;40.58;;
77246;SDS011;66279;42.820;23.374;2022-12-24T04:48:54;107.70;;;44.22;;
77246;SDS011;66279;42.820;23.374;2022-12-24T04:51:20;115.07;;;43.72;;
77246;SDS011;66279;42.820;23.374;2022-12-24T04:53:47;112.55;;;42.33;;
77246;SDS011;66279;42.820;23.374;2022-12-24T04:56:14;103.05;;;42.53;;
77246;SDS011;66279;42.820;23.374;2022-12-24T04:58:45;123.35;;;43.45;;
77246;SDS011;66279;42.820;23.374;2022-12-24T05:01:12;114.60;;;45.03;;
77246;SDS011;66279;42.820;23.374;2022-12-24T05:03:39;106.78;;;39.08;;
77246;SDS011;66279;42.820;23.374;2022-12-24T05:06:08;115.90;;;42.90;;
77246;SDS011;66279;42.820;23.374;2022-12-24T05:08:36;116.40;;;42.95;;
77246;SDS011;66279;42.820;23.374;2022-12-24T05:11:02;120.47;;;43.65;;
77246;SDS011;66279;42.820;23.374;2022-12-24T05:13:29;104.18;;;42.95;;
77246;SDS011;66279;42.820;23.374;2022-12-24T05:15:55;121.35;;;44.25;;
77246;SDS011;66279;42.820;23.374;2022-12-24T05:18:21;118.85;;;44.60;;
77246;SDS011;66279;42.820;23.374;2022-12-24T05:20:46;110.78;;;44.65;;
77246;SDS011;66279;42.820;23.374;2022-12-24T05:23:16;119.40;;;44.60;;
77246;SDS011;66279;42.820;23.374;2022-12-24T05:28:49;118.30;;;41.22;;
77246;SDS011;66279;42.820;23.374;2022-12-24T05:31:16;92.05;;;38.47;;
77246;SDS011;66279;42.820;23.374;2022-12-24T05:33:41;95.72;;;40.28;;
77246;SDS011;66279;42.820;23.374;2022-12-24T05:36:07;95.75;;;37.28;;
77246;SDS011;66279;42.820;23.374;2022-12-24T05:38:33;107.85;;;42.88;;
77246;SDS011;66279;42.820;23.374;2022-12-24T05:40:59;101.72;;;41.58;;
77246;SDS011;66279;42.820;23.374;2022-12-24T05:43:25;130.75;;;54.20;;
77246;SDS011;66279;42.820;23.374;2022-12-24T05:45:51;141.52;;;55.97;;
77246;SDS011;66279;42.820;23.374;2022-12-24T05:48:21;124.20;;;49.63;;
77246;SDS011;66279;42.820;23.374;2022-12-24T05:50:47;142.85;;;51.30;;
77246;SDS011;66279;42.820;23.374;2022-12-24T05:53:12;133.07;;;49.42;;
77246;SDS011;66279;42.820;23.374;2022-12-24T05:55:37;129.02;;;49.70;;
77246;SDS011;66279;42.820;23.374;2022-12-24T05:58:03;121.88;;;46.30;;
77246;SDS011;66279;42.820;23.374;2022-12-24T06:00:29;129.23;;;45.22;;
77246;SDS011;66279;42.820;23.374;2022-12-24T06:02:54;151.90;;;59.58;;
77246;SDS011;66279;42.820;23.374;2022-12-24T06:05:20;178.35;;;61.33;;
77246;SDS011;66279;42.820;23.374;2022-12-24T06:07:45;134.55;;;55.67;;
77246;SDS011;66279;42.820;23.374;2022-12-24T06:10:11;133.25;;;49.67;;
77246;SDS011;66279;42.820;23.374;2022-12-24T06:12:36;183.20;;;66.45;;
77246;SDS011;66279;42.820;23.374;2022-12-24T06:15:02;195.50;;;68.93;;
77246;SDS011;66279;42.820;23.374;2022-12-24T06:17:28;169.27;;;59.03;;
77246;SDS011;66279;42.820;23.374;2022-12-24T06:19:53;139.45;;;49.08;;
77246;SDS011;66279;42.820;23.374;2022-12-24T06:22:19;112.25;;;44.90;;
77246;SDS011;66279;42.820;23.374;2022-12-24T06:24:44;118.20;;;45.05;;
77246;SDS011;66279;42.820;23.374;2022-12-24T06:27:10;111.00;;;42.22;;
77246;SDS011;66279;42.820;23.374;2022-12-24T06:29:35;131.73;;;49.92;;
77246;SDS011;66279;42.820;23.374;2022-12-24T06:32:01;158.05;;;55.65;;
77246;SDS011;66279;42.820;23.374;2022-12-24T06:34:27;151.65;;;55.72;;
77246;SDS011;66279;42.820;23.374;2022-12-24T06:36:52;161.05;;;57.78;;
77246;SDS011;66279;42.820;23.374;2022-12-24T06:39:18;184.43;;;68.32;;
77246;SDS011;66279;42.820;23.374;2022-12-24T06:41:43;185.40;;;75.07;;
77246;SDS011;66279;42.820;23.374;2022-12-24T06:44:09;166.05;;;63.80;;
77246;SDS011;66279;42.820;23.374;2022-12-24T06:46:34;198.68;;;65.75;;
77246;SDS011;66279;42.820;23.374;2022-12-24T06:49:00;162.00;;;61.97;;
77246;SDS011;66279;42.820;23.374;2022-12-24T06:51:25;162.75;;;69.38;;
77246;SDS011;66279;42.820;23.374;2022-12-24T06:53:51;157.95;;;66.82;;
77246;SDS011;66279;42.820;23.374;2022-12-24T06:56:18;134.68;;;50.22;;
77246;SDS011;66279;42.820;23.374;2022-12-24T06:58:44;122.05;;;45.67;;
77246;SDS011;66279;42.820;23.374;2022-12-24T07:01:13;141.23;;;54.65;;
77246;SDS011;66279;42.820;23.374;2022-12-24T07:03:39;126.25;;;47.90;;
77246;SDS011;66279;42.820;23.374;2022-12-24T07:06:06;178.57;;;74.28;;
77246;SDS011;66279;42.820;23.374;2022-12-24T07:11:00;198.13;;;76.05;;
77246;SDS011;66279;42.820;23.374;2022-12-24T07:13:27;192.82;;;71.63;;
77246;SDS011;66279;42.820;23.374;2022-12-24T07:15:56;183.93;;;68.00;;
77246;SDS011;66279;42.820;23.374;2022-12-24T07:18:26;138.65;;;55.67;;
77246;SDS011;66279;42.820;23.374;2022-12-24T07:20:52;138.00;;;54.30;;
77246;SDS011;66279;42.820;23.374;2022-12-24T07:23:17;143.13;;;55.13;;
77246;SDS011;66279;42.820;23.374;2022-12-24T07:25:43;116.40;;;49.45;;
77246;SDS011;66279;42.820;23.374;2022-12-24T07:28:09;134.82;;;51.75;;
77246;SDS011;66279;42.820;23.374;2022-12-24T07:30:34;131.85;;;48.15;;
77246;SDS011;66279;42.820;23.374;2022-12-24T07:32:59;127.20;;;50.17;;
77246;SDS011;66279;42.820;23.374;2022-12-24T07:35:25;112.88;;;42.80;;
77246;SDS011;66279;42.820;23.374;2022-12-24T07:37:51;117.20;;;46.10;;
77246;SDS011;66279;42.820;23.374;2022-12-24T07:40:16;115.05;;;41.17;;
77246;SDS011;66279;42.820;23.374;2022-12-24T07:42:42;130.93;;;49.80;;
77246;SDS011;66279;42.820;23.374;2022-12-24T07:45:07;127.80;;;46.58;;
77246;SDS011;66279;42.820;23.374;2022-12-24T07:47:33;118.00;;;43.45;;
77246;SDS011;66279;42.820;23.374;2022-12-24T07:49:59;105.65;;;40.17;;
77246;SDS011;66279;42.820;23.374;2022-12-24T07:52:25;126.82;;;49.65;;
77246;SDS011;66279;42.820;23.374;2022-12-24T07:54:50;118.35;;;43.92;;
77246;SDS011;66279;42.820;23.374;2022-12-24T07:57:16;181.02;;;64.63;;
77246;SDS011;66279;42.820;23.374;2022-12-24T07:59:41;138.02;;;48.47;;
77246;SDS011;66279;42.820;23.374;2022-12-24T08:02:08;127.75;;;47.42;;
77246;SDS011;66279;42.820;23.374;2022-12-24T08:04:35;132.13;;;50.53;;
77246;SDS011;66279;42.820;23.374;2022-12-24T08:07:02;116.68;;;41.70;;
77246;SDS011;66279;42.820;23.374;2022-12-24T08:09:30;99.40;;;35.95;;
77246;SDS011;66279;42.820;23.374;2022-12-24T08:11:56;89.45;;;33.65;;
77246;SDS011;66279;42.820;23.374;2022-12-24T08:14:21;96.07;;;37.00;;
77246;SDS011;66279;42.820;23.374;2022-12-24T08:16:47;107.30;;;42.67;;
77246;SDS011;66279;42.820;23.374;2022-12-24T08:19:12;154.85;;;58.97;;
77246;SDS011;66279;42.820;23.374;2022-12-24T08:21:38;176.00;;;74.90;;
77246;SDS011;66279;42.820;23.374;2022-12-24T08:24:03;166.38;;;57.35;;
77246;SDS011;66279;42.820;23.374;2022-12-24T08:26:29;152.07;;;55.30;;
77246;SDS011;66279;42.820;23.374;2022-12-24T08:28:55;128.32;;;54.13;;
77246;SDS011;66279;42.820;23.374;2022-12-24T08:31:20;136.98;;;53.47;;
77246;SDS011;66279;42.820;23.374;2022-12-24T08:33:46;149.30;;;60.80;;
77246;SDS011;66279;42.820;23.374;2022-12-24T08:36:11;151.23;;;57.40;;
77246;SDS011;66279;42.820;23.374;2022-12-24T08:38:37;137.63;;;54.13;;
77246;SDS011;66279;42.820;23.374;2022-12-24T08:41:02;130.57;;;52.13;;
77246;SDS011;66279;42.820;23.374;2022-12-24T08:43:28;121.20;;;47.63;;
77246;SDS011;66279;42.820;23.374;2022-12-24T08:45:54;122.05;;;51.85;;
77246;SDS011;66279;42.820;23.374;2022-12-24T08:48:19;106.63;;;44.90;;
77246;SDS011;66279;42.820;23.374;2022-12-24T08:50:45;111.90;;;43.50;;
77246;SDS011;66279;42.820;23.374;2022-12-24T08:53:11;109.75;;;43.63;;
77246;SDS011;66279;42.820;23.374;2022-12-24T08:55:37;92.25;;;39.55;;
77246;SDS011;66279;42.820;23.374;2022-12-24T08:58:03;106.25;;;43.03;;
77246;SDS011;66279;42.820;23.374;2022-12-24T09:00:29;110.75;;;40.80;;
77246;SDS011;66279;42.820;23.374;2022-12-24T09:02:55;108.68;;;43.30;;
77246;SDS011;66279;42.820;23.374;2022-12-24T09:05:21;114.20;;;47.63;;
77246;SDS011;66279;42.820;23.374;2022-12-24T09:07:47;109.78;;;45.53;;
77246;SDS011;66279;42.820;23.374;2022-12-24T09:10:12;112.35;;;48.00;;
77246;SDS011;66279;42.820;23.374;2022-12-24T09:12:37;118.65;;;48.88;;
77246;SDS011;66279;42.820;23.374;2022-12-24T09:15:03;113.53;;;49.80;;
77246;SDS011;66279;42.820;23.374;2022-12-24T09:17:32;114.75;;;48.88;;
77246;SDS011;66279;42.820;23.374;2022-12-24T09:19:58;120.18;;;46.42;;
77246;SDS011;66279;42.820;23.374;2022-12-24T09:22:24;103.18;;;44.05;;
77246;SDS011;66279;42.820;23.374;2022-12-24T09:24:49;96.15;;;44.75;;
77246;SDS011;66279;42.820;23.374;2022-12-24T09:27:15;104.72;;;43.78;;
77246;SDS011;66279;42.820;23.374;2022-12-24T09:29:40;101.72;;;47.05;;
77246;SDS011;66279;42.820;23.374;2022-12-24T09:32:06;123.97;;;55.85;;
77246;SDS011;66279;42.820;23.374;2022-12-24T09:34:32;142.38;;;65.70;;
77246;SDS011;66279;42.820;23.374;2022-12-24T09:36:57;122.90;;;58.10;;
77246;SDS011;66279;42.820;23.374;2022-12-24T09:39:24;122.18;;;53.95;;
77246;SDS011;66279;42.820;23.374;2022-12-24T09:46:58;145.52;;;70.85;;
77246;SDS011;66279;42.820;23.374;2022-12-24T09:49:28;200.88;;;102.90;;
77246;SDS011;66279;42.820;23.374;2022-12-24T09:52:09;194.98;;;88.05;;
77246;SDS011;66279;42.820;23.374;2022-12-24T09:54:40;174.63;;;93.00;;
77246;SDS011;66279;42.820;23.374;2022-12-24T09:57:14;177.77;;;85.53;;
77246;SDS011;66279;42.820;23.374;2022-12-24T09:59:53;145.80;;;69.53;;
77246;SDS011;66279;42.820;23.374;2022-12-24T10:02:20;122.50;;;58.30;;
77246;SDS011;66279;42.820;23.374;2022-12-24T10:04:46;115.10;;;56.55;;
77246;SDS011;66279;42.820;23.374;2022-12-24T10:07:22;115.28;;;53.47;;
77246;SDS011;66279;42.820;23.374;2022-12-24T10:12:32;85.03;;;39.72;;
77246;SDS011;66279;42.820;23.374;2022-12-24T10:23:25;36.20;;;20.35;;
77246;SDS011;66279;42.820;23.374;2022-12-24T10:28:52;100.68;;;51.55;;
77246;SDS011;66279;42.820;23.374;2022-12-24T10:31:22;99.93;;;52.80;;
77246;SDS011;66279;42.820;23.374;2022-12-24T10:34:34;97.30;;;54.90;;
77246;SDS011;66279;42.820;23.374;2022-12-24T10:36:55;53.63;;;29.52;;
77246;SDS011;66279;42.820;23.374;2022-12-24T10:39:23;43.10;;;25.63;;
77246;SDS011;66279;42.820;23.374;2022-12-24T10:41:51;48.35;;;24.75;;
77246;SDS011;66279;42.820;23.374;2022-12-24T10:44:20;40.97;;;22.05;;
77246;SDS011;66279;42.820;23.374;2022-12-24T10:46:48;39.90;;;21.98;;
77246;SDS011;66279;42.820;23.374;2022-12-24T10:49:34;42.80;;;24.80;;
77246;SDS011;66279;42.820;23.374;2022-12-24T10:52:10;43.25;;;23.17;;
77246;SDS011;66279;42.820;23.374;2022-12-24T10:54:40;41.25;;;23.30;;
77246;SDS011;66279;42.820;23.374;2022-12-24T10:57:31;39.42;;;23.00;;
77246;SDS011;66279;42.820;23.374;2022-12-24T10:59:57;39.47;;;23.13;;
77246;SDS011;66279;42.820;23.374;2022-12-24T11:02:31;39.78;;;23.02;;
77246;SDS011;66279;42.820;23.374;2022-12-24T11:04:59;62.55;;;31.55;;
77246;SDS011;66279;42.820;23.374;2022-12-24T11:07:26;60.58;;;31.65;;
77246;SDS011;66279;42.820;23.374;2022-12-24T11:09:56;68.65;;;37.55;;
77246;SDS011;66279;42.820;23.374;2022-12-24T11:12:31;116.03;;;57.53;;
77246;SDS011;66279;42.820;23.374;2022-12-24T11:15:43;91.40;;;49.58;;
77246;SDS011;66279;42.820;23.374;2022-12-24T11:18:02;80.97;;;46.08;;
77246;SDS011;66279;42.820;23.374;2022-12-24T11:20:31;162.32;;;86.88;;
77246;SDS011;66279;42.820;23.374;2022-12-24T11:22:58;135.77;;;69.40;;
77246;SDS011;66279;42.820;23.374;2022-12-24T11:25:29;97.53;;;54.03;;
77246;SDS011;66279;42.820;23.374;2022-12-24T11:28:19;132.32;;;69.63;;
77246;SDS011;66279;42.820;23.374;2022-12-24T11:30:58;85.05;;;45.10;;
77246;SDS011;66279;42.820;23.374;2022-12-24T11:33:25;129.45;;;65.35;;
77246;SDS011;66279;42.820;23.374;2022-12-24T11:35:53;101.35;;;55.08;;
77246;SDS011;66279;42.820;23.374;2022-12-24T11:38:25;97.22;;;53.47;;
77246;SDS011;66279;42.820;23.374;2022-12-24T11:43:35;129.68;;;67.57;;
77246;SDS011;66279;42.820;23.374;2022-12-24T11:48:43;159.25;;;72.53;;
77246;SDS011;66279;42.820;23.374;2022-12-24T11:51:20;169.30;;;83.90;;
77246;SDS011;66279;42.820;23.374;2022-12-24T11:56:37;185.98;;;85.47;;
77246;SDS011;66279;42.820;23.374;2022-12-24T11:59:32;207.13;;;104.22;;
77246;SDS011;66279;42.820;23.374;2022-12-24T12:04:53;125.38;;;63.80;;
77246;SDS011;66279;42.820;23.374;2022-12-24T12:07:24;112.63;;;58.85;;
77246;SDS011;66279;42.820;23.374;2022-12-24T12:12:36;101.13;;;54.35;;
77246;SDS011;66279;42.820;23.374;2022-12-24T12:15:16;100.68;;;56.35;;
77246;SDS011;66279;42.820;23.374;2022-12-24T12:18:31;94.05;;;56.28;;
77246;SDS011;66279;42.820;23.374;2022-12-24T12:23:35;137.10;;;67.72;;
77246;SDS011;66279;42.820;23.374;2022-12-24T12:32:09;105.68;;;60.13;;
77246;SDS011;66279;42.820;23.374;2022-12-24T12:39:31;140.10;;;72.00;;
77246;SDS011;66279;42.820;23.374;2022-12-24T12:42:02;95.57;;;52.75;;
77246;SDS011;66279;42.820;23.374;2022-12-24T13:07:54;118.30;;;62.20;;
77246;SDS011;66279;42.820;23.374;2022-12-24T13:19:58;107.78;;;52.63;;
77246;SDS011;66279;42.820;23.374;2022-12-24T13:22:28;91.28;;;51.17;;
77246;SDS011;66279;42.820;23.374;2022-12-24T13:24:54;108.63;;;55.50;;
77246;SDS011;66279;42.820;23.374;2022-12-24T13:27:24;133.93;;;72.95;;
77246;SDS011;66279;42.820;23.374;2022-12-24T13:29:56;121.70;;;68.10;;
77246;SDS011;66279;42.820;23.374;2022-12-24T13:34:59;124.47;;;71.40;;
77246;SDS011;66279;42.820;23.374;2022-12-24T13:48:12;76.43;;;44.13;;
77246;SDS011;66279;42.820;23.374;2022-12-24T13:50:58;82.72;;;47.08;;
77246;SDS011;66279;42.820;23.374;2022-12-24T13:53:46;84.90;;;45.50;;
77246;SDS011;66279;42.820;23.374;2022-12-24T13:58:48;81.35;;;45.38;;
77246;SDS011;66279;42.820;23.374;2022-12-24T14:01:31;80.55;;;45.42;;
77246;SDS011;66279;42.820;23.374;2022-12-24T14:04:00;118.28;;;59.97;;
77246;SDS011;66279;42.820;23.374;2022-12-24T14:06:29;107.75;;;55.50;;
77246;SDS011;66279;42.820;23.374;2022-12-24T14:09:04;99.22;;;51.15;;
77246;SDS011;66279;42.820;23.374;2022-12-24T14:14:27;100.90;;;52.95;;
77246;SDS011;66279;42.820;23.374;2022-12-24T14:16:58;111.28;;;55.53;;
77246;SDS011;66279;42.820;23.374;2022-12-24T14:22:21;104.68;;;51.63;;
77246;SDS011;66279;42.820;23.374;2022-12-24T14:25:12;107.00;;;52.15;;
77246;SDS011;66279;42.820;23.374;2022-12-24T14:27:43;98.88;;;52.33;;
77246;SDS011;66279;42.820;23.374;2022-12-24T14:30:17;101.20;;;52.60;;
77246;SDS011;66279;42.820;23.374;2022-12-24T14:32:44;99.10;;;53.70;;
77246;SDS011;66279;42.820;23.374;2022-12-24T16:03:28;98.05;;;55.90;;
77246;SDS011;66279;42.820;23.374;2022-12-24T16:18:16;83.65;;;46.90;;
77246;SDS011;66279;42.820;23.374;2022-12-24T16:20:49;81.65;;;47.47;;
77246;SDS011;66279;42.820;23.374;2022-12-24T16:23:16;96.63;;;52.67;;
77246;SDS011;66279;42.820;23.374;2022-12-24T16:25:44;104.63;;;58.70;;
77246;SDS011;66279;42.820;23.374;2022-12-24T16:28:10;114.15;;;59.83;;
77246;SDS011;66279;42.820;23.374;2022-12-24T16:30:37;114.13;;;62.03;;
77246;SDS011;66279;42.820;23.374;2022-12-24T16:33:03;116.47;;;58.25;;
77246;SDS011;66279;42.820;23.374;2022-12-24T16:35:30;112.40;;;56.08;;
77246;SDS011;66279;42.820;23.374;2022-12-24T16:38:02;110.57;;;59.90;;
77246;SDS011;66279;42.820;23.374;2022-12-24T16:40:28;96.75;;;53.00;;
77246;SDS011;66279;42.820;23.374;2022-12-24T16:42:57;219.07;;;110.65;;
77246;SDS011;66279;42.820;23.374;2022-12-24T16:45:41;160.15;;;77.88;;
77246;SDS011;66279;42.820;23.374;2022-12-24T16:48:08;146.75;;;73.80;;
77246;SDS011;66279;42.820;23.374;2022-12-24T16:50:38;105.95;;;54.70;;
77246;SDS011;66279;42.820;23.374;2022-12-24T16:53:03;63.58;;;35.55;;
77246;SDS011;66279;42.820;23.374;2022-12-24T16:55:29;99.65;;;50.35;;
77246;SDS011;66279;42.820;23.374;2022-12-24T16:57:54;75.30;;;41.72;;
77246;SDS011;66279;42.820;23.374;2022-12-24T17:00:20;73.22;;;41.67;;
77246;SDS011;66279;42.820;23.374;2022-12-24T17:02:47;60.88;;;32.78;;
77246;SDS011;66279;42.820;23.374;2022-12-24T17:05:13;60.75;;;32.45;;
77246;SDS011;66279;42.820;23.374;2022-12-24T17:07:42;59.22;;;32.65;;
77246;SDS011;66279;42.820;23.374;2022-12-24T17:10:10;87.47;;;46.35;;
77246;SDS011;66279;42.820;23.374;2022-12-24T17:15:02;76.90;;;38.53;;
77246;SDS011;66279;42.820;23.374;2022-12-24T17:17:28;85.90;;;42.72;;
77246;SDS011;66279;42.820;23.374;2022-12-24T17:19:55;74.05;;;39.10;;
77246;SDS011;66279;42.820;23.374;2022-12-24T17:22:21;102.72;;;52.88;;
77246;SDS011;66279;42.820;23.374;2022-12-24T17:24:47;109.88;;;58.35;;
77246;SDS011;66279;42.820;23.374;2022-12-24T17:27:13;106.40;;;59.65;;
77246;SDS011;66279;42.820;23.374;2022-12-24T17:29:39;96.95;;;53.95;;
77246;SDS011;66279;42.820;23.374;2022-12-24T17:32:04;107.88;;;64.07;;
77246;SDS011;66279;42.820;23.374;2022-12-24T17:34:30;129.15;;;71.97;;
77246;SDS011;66279;42.820;23.374;2022-12-24T17:36:56;114.10;;;65.15;;
77246;SDS011;66279;42.820;23.374;2022-12-24T17:39:22;123.13;;;67.05;;
77246;SDS011;66279;42.820;23.374;2022-12-24T17:41:48;94.50;;;53.20;;
77246;SDS011;66279;42.820;23.374;2022-12-24T17:44:15;95.30;;;51.85;;
77246;SDS011;66279;42.820;23.374;2022-12-24T17:46:40;114.15;;;62.63;;
77246;SDS011;66279;42.820;23.374;2022-12-24T17:49:06;98.93;;;53.05;;
77246;SDS011;66279;42.820;23.374;2022-12-24T17:51:32;87.75;;;44.22;;
77246;SDS011;66279;42.820;23.374;2022-12-24T17:53:58;75.15;;;39.45;;
77246;SDS011;66279;42.820;23.374;2022-12-24T17:56:24;82.45;;;45.85;;
77246;SDS011;66279;42.820;23.374;2022-12-24T17:58:51;81.03;;;44.63;;
77246;SDS011;66279;42.820;23.374;2022-12-24T18:01:17;75.25;;;40.92;;
77246;SDS011;66279;42.820;23.374;2022-12-24T18:03:45;83.88;;;43.03;;
77246;SDS011;66279;42.820;23.374;2022-12-24T18:06:12;77.70;;;40.83;;
77246;SDS011;66279;42.820;23.374;2022-12-24T18:08:39;75.35;;;40.33;;